Time;durP1;ratioP1;P1;durP2;ratioP2;P2;SDS_P1;SDS_P2;PMS_P1;PMS_P2;Temp;Humidity;BMP_temperature;BMP_pressure;BME280_temperature;BME280_humidity;BME280_pressure;Samples;Min_cycle;Max_cycle;Signal;HPM_P1;HPM_P2
2022/03/10 00:02:02;;;;;;;46.20;24.70;;;;;;;;;;5011311;28;20084;-64
2022/03/10 00:04:28;;;;;;;42.45;23.45;;;;;;;;;;5011153;28;20066;-65
2022/03/10 00:06:53;;;;;;;48.65;24.75;;;;;;;;;;5011026;28;20064;-65
2022/03/10 00:09:19;;;;;;;42.22;23.83;;;;;;;;;;5011171;28;20096;-64
2022/03/10 00:11:46;;;;;;;47.58;24.27;;;;;;;;;;5011028;28;20030;-64
2022/03/10 00:14:12;;;;;;;43.03;23.27;;;;;;;;;;5011325;28;20045;-65
2022/03/10 00:16:38;;;;;;;41.88;22.25;;;;;;;;;;5010772;28;20509;-65
2022/03/10 00:19:03;;;;;;;44.08;23.95;;;;;;;;;;5010782;28;20517;-63
2022/03/10 00:21:29;;;;;;;47.15;24.00;;;;;;;;;;5011400;28;20017;-62
2022/03/10 00:23:54;;;;;;;44.75;23.30;;;;;;;;;;5010938;28;20418;-65
2022/03/10 00:26:19;;;;;;;40.78;22.48;;;;;;;;;;5010676;28;20022;-63
2022/03/10 00:28:45;;;;;;;41.63;22.20;;;;;;;;;;5010546;28;20033;-63
2022/03/10 00:31:10;;;;;;;43.63;23.90;;;;;;;;;;5010662;28;20022;-66
2022/03/10 00:33:36;;;;;;;40.97;22.73;;;;;;;;;;5010597;28;20137;-65
2022/03/10 00:36:01;;;;;;;43.47;23.35;;;;;;;;;;5010538;28;20628;-66
2022/03/10 00:38:26;;;;;;;42.15;23.13;;;;;;;;;;5010676;28;20030;-66
2022/03/10 00:40:52;;;;;;;42.10;21.83;;;;;;;;;;5010952;28;20033;-65
2022/03/10 00:43:17;;;;;;;41.53;22.50;;;;;;;;;;5009238;28;20036;-65
2022/03/10 00:45:43;;;;;;;38.42;21.38;;;;;;;;;;5008960;28;20616;-65
2022/03/10 00:48:09;;;;;;;40.42;21.25;;;;;;;;;;5010154;28;20577;-66
2022/03/10 00:50:35;;;;;;;37.75;20.38;;;;;;;;;;5010979;28;20552;-66
2022/03/10 00:53:00;;;;;;;36.45;19.90;;;;;;;;;;5010367;28;20136;-65
2022/03/10 00:55:26;;;;;;;39.85;19.90;;;;;;;;;;5010846;28;20120;-66
2022/03/10 00:57:51;;;;;;;35.33;19.23;;;;;;;;;;5010270;28;20122;-67
2022/03/10 01:00:18;;;;;;;36.15;19.20;;;;;;;;;;5010204;28;20030;-65
2022/03/10 01:02:44;;;;;;;34.28;19.33;;;;;;;;;;5010156;28;20123;-65
2022/03/10 01:05:10;;;;;;;32.60;18.65;;;;;;;;;;5010309;28;20065;-65
2022/03/10 01:07:36;;;;;;;32.53;18.50;;;;;;;;;;5010343;28;20030;-66
2022/03/10 01:10:05;;;;;;;33.90;17.95;;;;;;;;;;5010234;28;20032;-65
2022/03/10 01:12:31;;;;;;;35.00;18.33;;;;;;;;;;5010410;28;20041;-65
2022/03/10 01:14:56;;;;;;;33.80;18.52;;;;;;;;;;5010066;28;20025;-66
2022/03/10 01:17:21;;;;;;;35.10;17.92;;;;;;;;;;5010198;28;20104;-64
2022/03/10 01:19:48;;;;;;;33.28;17.60;;;;;;;;;;5010007;28;20032;-65
2022/03/10 01:22:13;;;;;;;34.50;18.80;;;;;;;;;;5010312;28;20026;-65
2022/03/10 01:24:41;;;;;;;37.30;19.15;;;;;;;;;;5009945;28;20030;-67
2022/03/10 01:27:07;;;;;;;30.42;18.00;;;;;;;;;;5009789;28;20062;-66
2022/03/10 01:29:33;;;;;;;34.35;20.02;;;;;;;;;;5010029;28;20026;-64
2022/03/10 01:31:58;;;;;;;35.00;18.55;;;;;;;;;;5010137;28;20113;-64
2022/03/10 01:34:23;;;;;;;34.17;18.60;;;;;;;;;;5009578;28;20517;-65
2022/03/10 01:36:49;;;;;;;29.88;17.42;;;;;;;;;;5010063;28;20018;-66
2022/03/10 01:39:14;;;;;;;32.22;17.73;;;;;;;;;;5009823;28;20010;-64
2022/03/10 01:41:40;;;;;;;33.45;17.98;;;;;;;;;;5010091;28;20049;-65
2022/03/10 01:44:08;;;;;;;33.67;18.05;;;;;;;;;;5010183;28;20064;-64
2022/03/10 01:46:34;;;;;;;31.67;17.88;;;;;;;;;;5009919;28;20105;-64
2022/03/10 01:49:00;;;;;;;31.27;17.55;;;;;;;;;;5010079;28;20054;-66
2022/03/10 01:51:26;;;;;;;31.75;18.30;;;;;;;;;;5010353;28;20440;-64
2022/03/10 01:53:52;;;;;;;29.58;17.65;;;;;;;;;;5009452;28;20129;-66
2022/03/10 01:56:19;;;;;;;31.52;18.00;;;;;;;;;;5009750;28;20045;-66
2022/03/10 01:58:46;;;;;;;34.65;17.13;;;;;;;;;;5010786;28;20026;-62
2022/03/10 02:01:15;;;;;;;33.42;17.75;;;;;;;;;;5013573;28;20022;-65
2022/03/10 02:03:41;;;;;;;30.45;16.98;;;;;;;;;;5013728;28;20057;-66
2022/03/10 02:06:06;;;;;;;30.05;17.58;;;;;;;;;;5013521;28;20061;-65
2022/03/10 02:11:17;;;;;;;29.25;16.48;;;;;;;;;;5013543;28;20116;-65
2022/03/10 02:13:43;;;;;;;30.23;17.30;;;;;;;;;;5013211;28;20034;-66
2022/03/10 02:19:00;;;;;;;29.60;16.83;;;;;;;;;;5013270;28;20037;-65
2022/03/10 02:21:26;;;;;;;30.15;16.83;;;;;;;;;;5013108;28;20030;-64
2022/03/10 02:23:53;;;;;;;31.17;17.80;;;;;;;;;;5013225;28;20033;-64
2022/03/10 02:26:18;;;;;;;31.65;18.13;;;;;;;;;;5012805;28;20470;-65
2022/03/10 02:28:44;;;;;;;30.38;16.67;;;;;;;;;;5013094;28;20037;-64
2022/03/10 02:31:10;;;;;;;29.77;16.02;;;;;;;;;;5012701;28;20040;-64
2022/03/10 02:33:36;;;;;;;30.58;16.88;;;;;;;;;;5012975;28;20420;-64
2022/03/10 02:36:04;;;;;;;30.15;16.38;;;;;;;;;;5012634;28;20045;-66
2022/03/10 02:38:30;;;;;;;31.35;17.02;;;;;;;;;;5012813;28;20034;-65
2022/03/10 02:40:56;;;;;;;32.13;17.10;;;;;;;;;;5013152;28;20038;-64
2022/03/10 02:43:22;;;;;;;32.97;17.08;;;;;;;;;;5013235;28;20037;-66
2022/03/10 02:45:48;;;;;;;29.55;15.88;;;;;;;;;;5012446;28;20037;-65
2022/03/10 02:48:15;;;;;;;32.88;16.75;;;;;;;;;;5012550;28;20026;-64
2022/03/10 02:50:42;;;;;;;29.55;16.08;;;;;;;;;;5012638;28;20092;-64
2022/03/10 02:53:07;;;;;;;32.13;16.52;;;;;;;;;;5012586;28;20030;-64
2022/03/10 02:55:33;;;;;;;31.67;15.93;;;;;;;;;;5012848;28;20022;-66
2022/03/10 02:57:58;;;;;;;28.45;15.82;;;;;;;;;;5012487;28;20100;-65
2022/03/10 03:00:24;;;;;;;29.05;14.55;;;;;;;;;;5012418;28;20021;-66
2022/03/10 03:02:49;;;;;;;30.33;15.95;;;;;;;;;;5012346;28;20084;-65
2022/03/10 03:05:16;;;;;;;27.95;15.27;;;;;;;;;;5012161;28;20036;-65
2022/03/10 03:07:42;;;;;;;30.65;15.57;;;;;;;;;;5012742;28;20029;-65
2022/03/10 03:10:08;;;;;;;33.28;16.20;;;;;;;;;;5012089;28;20030;-64
2022/03/10 03:12:34;;;;;;;25.88;15.18;;;;;;;;;;5012418;28;20022;-66
2022/03/10 03:15:00;;;;;;;30.45;16.45;;;;;;;;;;5011984;28;20311;-65
2022/03/10 03:17:25;;;;;;;28.45;16.70;;;;;;;;;;5012195;28;20057;-64
2022/03/10 03:19:52;;;;;;;28.48;15.75;;;;;;;;;;5011778;28;20556;-65
2022/03/10 03:22:18;;;;;;;28.80;14.70;;;;;;;;;;5012357;28;20030;-66
2022/03/10 03:24:45;;;;;;;29.40;15.32;;;;;;;;;;5011936;28;20028;-66
2022/03/10 03:27:11;;;;;;;28.15;14.90;;;;;;;;;;5011778;28;20026;-64
2022/03/10 03:29:37;;;;;;;30.55;14.30;;;;;;;;;;5012006;28;20029;-64
2022/03/10 03:32:03;;;;;;;27.95;14.55;;;;;;;;;;5011702;28;20025;-66
2022/03/10 03:34:29;;;;;;;25.17;14.70;;;;;;;;;;5011198;28;20133;-64
2022/03/10 03:36:55;;;;;;;27.45;15.02;;;;;;;;;;5011404;28;20105;-64
2022/03/10 03:39:20;;;;;;;25.45;13.90;;;;;;;;;;5011722;28;20055;-64
2022/03/10 03:41:46;;;;;;;26.80;13.75;;;;;;;;;;5011625;28;20037;-65
2022/03/10 03:44:11;;;;;;;25.60;13.77;;;;;;;;;;5011911;28;20164;-66
2022/03/10 03:46:38;;;;;;;23.55;13.40;;;;;;;;;;5011561;28;20022;-64
2022/03/10 03:49:04;;;;;;;22.67;13.48;;;;;;;;;;5011601;28;20219;-64
2022/03/10 03:51:29;;;;;;;23.50;13.48;;;;;;;;;;5011785;28;20025;-64
2022/03/10 03:53:55;;;;;;;27.35;13.57;;;;;;;;;;5011548;28;20437;-64
2022/03/10 03:56:20;;;;;;;24.60;13.52;;;;;;;;;;5011177;28;20109;-66
2022/03/10 03:58:46;;;;;;;26.25;14.00;;;;;;;;;;5011322;28;20196;-66
2022/03/10 04:01:11;;;;;;;26.05;13.75;;;;;;;;;;5010976;28;20021;-64
2022/03/10 04:03:37;;;;;;;25.63;14.00;;;;;;;;;;5011648;28;20473;-66
2022/03/10 04:06:02;;;;;;;24.50;13.38;;;;;;;;;;5011132;28;20080;-67
2022/03/10 04:08:28;;;;;;;25.33;14.18;;;;;;;;;;5011070;28;20100;-66
2022/03/10 04:10:53;;;;;;;27.35;14.32;;;;;;;;;;5011097;28;20194;-64
2022/03/10 04:13:22;;;;;;;24.75;13.77;;;;;;;;;;5011239;28;20029;-65
2022/03/10 04:15:51;;;;;;;22.08;12.93;;;;;;;;;;5010783;28;20026;-65
2022/03/10 04:18:18;;;;;;;26.85;13.90;;;;;;;;;;5011101;28;20026;-66
2022/03/10 04:20:47;;;;;;;26.45;13.77;;;;;;;;;;5010743;28;20412;-63
2022/03/10 04:23:14;;;;;;;25.23;13.57;;;;;;;;;;5010929;28;20035;-65
2022/03/10 04:25:40;;;;;;;24.58;13.50;;;;;;;;;;5010721;28;20032;-65
2022/03/10 04:28:05;;;;;;;23.67;13.48;;;;;;;;;;5010666;28;20105;-64
2022/03/10 04:30:33;;;;;;;25.75;14.38;;;;;;;;;;5010594;28;20113;-66
2022/03/10 04:33:00;;;;;;;27.20;14.35;;;;;;;;;;5010620;28;20026;-67
2022/03/10 04:35:25;;;;;;;25.42;13.60;;;;;;;;;;5010670;28;20101;-65
2022/03/10 04:37:52;;;;;;;24.45;12.80;;;;;;;;;;5010786;28;20057;-65
2022/03/10 04:40:19;;;;;;;23.15;12.65;;;;;;;;;;5010891;28;20034;-65
2022/03/10 04:42:45;;;;;;;23.83;13.07;;;;;;;;;;5010773;28;20030;-66
2022/03/10 04:45:11;;;;;;;25.13;13.95;;;;;;;;;;5010457;28;20026;-64
2022/03/10 04:47:37;;;;;;;26.13;13.43;;;;;;;;;;5010003;28;20061;-66
2022/03/10 04:50:05;;;;;;;23.25;13.23;;;;;;;;;;5010564;28;20061;-66
2022/03/10 04:52:31;;;;;;;27.50;13.85;;;;;;;;;;5010370;28;20121;-65
2022/03/10 04:54:56;;;;;;;24.77;13.32;;;;;;;;;;5010617;28;20105;-66
2022/03/10 04:57:22;;;;;;;26.45;14.25;;;;;;;;;;5010088;28;20084;-65
2022/03/10 04:59:48;;;;;;;25.65;14.07;;;;;;;;;;5010316;28;20044;-68
2022/03/10 05:02:13;;;;;;;22.45;12.80;;;;;;;;;;5010095;28;20060;-64
2022/03/10 05:04:38;;;;;;;24.13;13.20;;;;;;;;;;5010427;28;20034;-65
2022/03/10 05:07:04;;;;;;;26.60;12.85;;;;;;;;;;5010296;28;20519;-67
2022/03/10 05:09:30;;;;;;;23.52;13.25;;;;;;;;;;5010244;28;20498;-65
2022/03/10 05:11:56;;;;;;;25.15;12.98;;;;;;;;;;5010231;28;20034;-67
2022/03/10 05:14:21;;;;;;;26.83;13.10;;;;;;;;;;5010324;28;20040;-66
2022/03/10 05:16:47;;;;;;;23.08;12.85;;;;;;;;;;5009988;28;20025;-65
2022/03/10 05:19:13;;;;;;;25.30;13.98;;;;;;;;;;5010298;28;20085;-65
2022/03/10 05:21:38;;;;;;;31.40;14.07;;;;;;;;;;5009889;28;20481;-66
2022/03/10 05:24:04;;;;;;;23.25;13.32;;;;;;;;;;5010236;28;20430;-66
2022/03/10 05:26:30;;;;;;;26.20;13.63;;;;;;;;;;5010220;28;20065;-65
2022/03/10 05:28:55;;;;;;;25.92;13.60;;;;;;;;;;5010170;28;20053;-66
2022/03/10 05:31:21;;;;;;;26.75;14.55;;;;;;;;;;5009959;28;20071;-66
2022/03/10 05:33:47;;;;;;;24.10;13.77;;;;;;;;;;5011299;28;20025;-66
2022/03/10 05:36:12;;;;;;;29.38;14.27;;;;;;;;;;5013730;28;20129;-66
2022/03/10 05:38:38;;;;;;;26.05;13.80;;;;;;;;;;5013876;28;20034;-66
2022/03/10 05:41:05;;;;;;;24.77;13.85;;;;;;;;;;5014179;28;20061;-66
2022/03/10 05:43:34;;;;;;;27.08;14.60;;;;;;;;;;5014057;28;20460;-66
2022/03/10 05:45:59;;;;;;;30.00;14.00;;;;;;;;;;5013743;28;20460;-66
2022/03/10 05:48:25;;;;;;;24.92;13.10;;;;;;;;;;5013670;28;20034;-64
2022/03/10 05:50:50;;;;;;;28.83;13.35;;;;;;;;;;5014222;28;20030;-65
2022/03/10 05:53:16;;;;;;;25.50;13.25;;;;;;;;;;5013381;28;20026;-67
2022/03/10 05:55:41;;;;;;;28.02;13.63;;;;;;;;;;5013727;28;20487;-64
2022/03/10 05:58:07;;;;;;;26.35;13.68;;;;;;;;;;5013326;28;20465;-64
2022/03/10 06:00:32;;;;;;;25.50;13.95;;;;;;;;;;5013781;28;20472;-67
2022/03/10 06:02:58;;;;;;;26.38;14.50;;;;;;;;;;5013498;28;20041;-66
2022/03/10 06:05:23;;;;;;;26.85;13.98;;;;;;;;;;5013832;28;20030;-66
2022/03/10 06:07:49;;;;;;;28.58;13.52;;;;;;;;;;5013253;28;20505;-64
2022/03/10 06:10:15;;;;;;;26.65;13.05;;;;;;;;;;5013183;28;20125;-65
2022/03/10 06:12:40;;;;;;;28.10;14.40;;;;;;;;;;5013512;28;20037;-66
2022/03/10 06:15:08;;;;;;;26.85;13.63;;;;;;;;;;5013217;28;20030;-65
2022/03/10 06:17:33;;;;;;;23.15;13.27;;;;;;;;;;5013549;28;20048;-64
2022/03/10 06:19:59;;;;;;;26.92;13.18;;;;;;;;;;5013013;28;20441;-65
2022/03/10 06:22:29;;;;;;;27.25;14.70;;;;;;;;;;5013523;28;20037;-66
2022/03/10 06:24:55;;;;;;;23.58;12.80;;;;;;;;;;5013257;28;20486;-65
2022/03/10 06:27:22;;;;;;;25.52;12.90;;;;;;;;;;5012859;28;20034;-65
2022/03/10 06:29:48;;;;;;;23.15;12.60;;;;;;;;;;5012762;28;20456;-66
2022/03/10 06:32:17;;;;;;;30.77;13.48;;;;;;;;;;5012869;28;20029;-65
2022/03/10 06:34:42;;;;;;;25.30;12.68;;;;;;;;;;5013230;28;20049;-64
2022/03/10 06:37:08;;;;;;;22.88;12.40;;;;;;;;;;5012842;28;20034;-64
2022/03/10 06:39:34;;;;;;;27.60;13.13;;;;;;;;;;5012644;28;20037;-67
2022/03/10 06:42:02;;;;;;;26.83;12.35;;;;;;;;;;5012883;28;20041;-66
2022/03/10 06:44:28;;;;;;;24.20;12.25;;;;;;;;;;5012388;28;20037;-64
2022/03/10 06:46:54;;;;;;;23.10;12.95;;;;;;;;;;5012473;28;20036;-65
2022/03/10 06:49:21;;;;;;;25.67;13.07;;;;;;;;;;5012442;28;20030;-65
2022/03/10 06:51:46;;;;;;;25.23;13.35;;;;;;;;;;5012751;28;20486;-65
2022/03/10 06:54:12;;;;;;;28.42;13.07;;;;;;;;;;5013059;28;20030;-64
2022/03/10 06:56:38;;;;;;;25.67;13.20;;;;;;;;;;5012916;28;20030;-64
2022/03/10 06:59:05;;;;;;;23.25;12.77;;;;;;;;;;5012221;28;20037;-66
2022/03/10 07:01:30;;;;;;;24.73;13.23;;;;;;;;;;5012565;28;20113;-68
2022/03/10 07:03:57;;;;;;;28.23;14.10;;;;;;;;;;5012151;28;20133;-68
2022/03/10 07:06:23;;;;;;;25.77;13.63;;;;;;;;;;5012439;28;20034;-67
2022/03/10 07:08:49;;;;;;;24.13;13.95;;;;;;;;;;5012530;28;20076;-67
2022/03/10 07:11:14;;;;;;;26.35;13.75;;;;;;;;;;5011919;28;20457;-66
2022/03/10 07:13:40;;;;;;;25.98;14.57;;;;;;;;;;5018348;28;20429;-67
2022/03/10 07:16:05;;;;;;;25.65;12.73;;;;;;;;;;5013993;28;20026;-66
2022/03/10 07:18:31;;;;;;;23.38;12.77;;;;;;;;;;5010428;28;20556;-67
2022/03/10 07:20:56;;;;;;;26.58;13.40;;;;;;;;;;5010988;28;20022;-66
2022/03/10 07:23:22;;;;;;;29.23;13.52;;;;;;;;;;5010159;28;20036;-67
2022/03/10 07:25:47;;;;;;;28.73;12.75;;;;;;;;;;5012421;28;20022;-67
2022/03/10 07:28:13;;;;;;;27.98;13.60;;;;;;;;;;5011773;28;20029;-68
2022/03/10 07:30:38;;;;;;;23.92;13.68;;;;;;;;;;5011843;28;20025;-67
2022/03/10 07:33:03;;;;;;;22.20;12.88;;;;;;;;;;5011784;28;20114;-67
2022/03/10 07:35:29;;;;;;;22.83;13.05;;;;;;;;;;5011969;28;20046;-66
2022/03/10 07:37:56;;;;;;;23.48;13.50;;;;;;;;;;5011585;28;20030;-67
2022/03/10 07:40:22;;;;;;;23.42;13.32;;;;;;;;;;5011683;28;20021;-67
2022/03/10 07:42:48;;;;;;;24.40;13.30;;;;;;;;;;5011503;28;20549;-67
2022/03/10 07:45:13;;;;;;;25.17;12.90;;;;;;;;;;5012075;28;20110;-67
2022/03/10 07:47:39;;;;;;;24.73;13.80;;;;;;;;;;5011609;28;20021;-68
2022/03/10 07:50:06;;;;;;;26.00;12.77;;;;;;;;;;5011611;28;20022;-67
2022/03/10 07:52:32;;;;;;;24.25;12.48;;;;;;;;;;5011300;28;20072;-64
2022/03/10 07:54:57;;;;;;;23.73;12.95;;;;;;;;;;5011285;28;20326;-66
2022/03/10 07:57:23;;;;;;;22.15;12.88;;;;;;;;;;5010800;28;20223;-66
2022/03/10 07:59:48;;;;;;;25.35;12.90;;;;;;;;;;5010850;28;20030;-65
2022/03/10 08:02:14;;;;;;;22.42;12.60;;;;;;;;;;5011356;28;20032;-66
2022/03/10 08:04:39;;;;;;;28.52;13.85;;;;;;;;;;5011182;28;20034;-66
2022/03/10 08:07:05;;;;;;;22.98;12.73;;;;;;;;;;5011289;28;20121;-66
2022/03/10 08:09:31;;;;;;;25.05;12.95;;;;;;;;;;5010622;28;20032;-67
2022/03/10 08:11:56;;;;;;;21.05;12.18;;;;;;;;;;5010875;28;20029;-67
2022/03/10 08:14:22;;;;;;;23.92;12.73;;;;;;;;;;5010842;28;20402;-66
2022/03/10 08:16:47;;;;;;;23.23;12.80;;;;;;;;;;5011338;28;20449;-66
2022/03/10 08:19:13;;;;;;;23.63;12.07;;;;;;;;;;5012962;28;20443;-66
2022/03/10 08:21:38;;;;;;;26.83;13.05;;;;;;;;;;5012140;28;20052;-66
2022/03/10 08:24:05;;;;;;;25.70;12.43;;;;;;;;;;5010051;28;20038;-66
2022/03/10 08:26:30;;;;;;;23.30;12.93;;;;;;;;;;5008711;28;20045;-66
2022/03/10 08:28:56;;;;;;;21.05;12.20;;;;;;;;;;5019670;28;20478;-67
2022/03/10 08:31:22;;;;;;;21.45;12.48;;;;;;;;;;5005386;28;20030;-69
2022/03/10 08:33:48;;;;;;;22.70;12.95;;;;;;;;;;5009834;28;20037;-67
2022/03/10 08:36:13;;;;;;;22.73;12.10;;;;;;;;;;5010006;28;20038;-66
2022/03/10 08:38:39;;;;;;;21.25;12.98;;;;;;;;;;5009242;28;20030;-67
2022/03/10 08:41:05;;;;;;;21.10;12.60;;;;;;;;;;5008731;28;20041;-69
2022/03/10 08:43:31;;;;;;;23.70;12.23;;;;;;;;;;5008891;28;20021;-68
2022/03/10 08:45:57;;;;;;;23.17;12.73;;;;;;;;;;5010247;28;20029;-69
2022/03/10 08:48:24;;;;;;;23.23;12.45;;;;;;;;;;5010478;28;20394;-67
2022/03/10 08:50:49;;;;;;;24.70;12.80;;;;;;;;;;5010322;28;20289;-66
2022/03/10 08:53:15;;;;;;;21.38;12.82;;;;;;;;;;5010399;28;20153;-66
2022/03/10 08:55:40;;;;;;;23.92;12.68;;;;;;;;;;5010528;28;20040;-66
2022/03/10 08:58:06;;;;;;;27.83;13.15;;;;;;;;;;5010739;28;20182;-68
2022/03/10 09:00:32;;;;;;;20.95;12.55;;;;;;;;;;5009615;28;20030;-67
2022/03/10 09:02:58;;;;;;;22.40;12.55;;;;;;;;;;5011648;28;20029;-67
2022/03/10 09:05:23;;;;;;;23.13;13.18;;;;;;;;;;5011766;28;20393;-67
2022/03/10 09:07:48;;;;;;;23.88;13.60;;;;;;;;;;5010029;28;20025;-67
2022/03/10 09:10:15;;;;;;;25.35;14.02;;;;;;;;;;5011067;28;20017;-67
2022/03/10 09:12:40;;;;;;;22.98;13.90;;;;;;;;;;5010024;28;20258;-66
2022/03/10 09:15:07;;;;;;;28.05;13.90;;;;;;;;;;5010181;28;20088;-67
2022/03/10 09:17:33;;;;;;;24.48;13.40;;;;;;;;;;5008835;28;20029;-66
2022/03/10 09:19:58;;;;;;;23.02;13.75;;;;;;;;;;5008952;28;20030;-66
2022/03/10 09:22:25;;;;;;;23.88;13.25;;;;;;;;;;5010037;28;20038;-65
2022/03/10 09:24:52;;;;;;;25.30;13.57;;;;;;;;;;5009685;28;20034;-67
2022/03/10 09:27:17;;;;;;;22.75;13.25;;;;;;;;;;5010035;28;20277;-67
2022/03/10 09:29:43;;;;;;;23.20;13.20;;;;;;;;;;5009691;28;20124;-66
2022/03/10 09:32:08;;;;;;;24.30;13.35;;;;;;;;;;5010009;28;20144;-66
2022/03/10 09:34:34;;;;;;;23.33;13.70;;;;;;;;;;5009571;28;20081;-67
2022/03/10 09:36:59;;;;;;;23.50;12.88;;;;;;;;;;5009925;28;20101;-66
2022/03/10 09:39:25;;;;;;;25.98;13.73;;;;;;;;;;5010101;28;20220;-66
2022/03/10 09:41:50;;;;;;;21.80;13.27;;;;;;;;;;5008698;28;20026;-65
2022/03/10 09:44:20;;;;;;;26.80;13.55;;;;;;;;;;5009593;28;20029;-66
2022/03/10 09:46:53;;;;;;;24.97;13.57;;;;;;;;;;5009949;28;20026;-65
2022/03/10 09:49:21;;;;;;;21.60;13.10;;;;;;;;;;5009399;28;20301;-66
2022/03/10 09:51:50;;;;;;;21.77;13.30;;;;;;;;;;5009938;28;20389;-65
2022/03/10 09:54:16;;;;;;;23.80;14.35;;;;;;;;;;5009417;28;20037;-65
2022/03/10 09:56:43;;;;;;;25.88;14.15;;;;;;;;;;5009772;28;20030;-71
2022/03/10 09:59:12;;;;;;;32.47;19.98;;;;;;;;;;5009507;28;20505;-67
2022/03/10 10:01:38;;;;;;;44.75;27.48;;;;;;;;;;5009785;28;20030;-66
2022/03/10 10:04:04;;;;;;;29.13;16.90;;;;;;;;;;5009666;28;20249;-66
2022/03/10 10:06:29;;;;;;;22.50;14.13;;;;;;;;;;5009587;28;20042;-65
2022/03/10 10:08:56;;;;;;;24.70;13.10;;;;;;;;;;5009700;28;20510;-66
2022/03/10 10:11:33;;;;;;;18.98;12.98;;;;;;;;;;5009301;28;20065;-69
2022/03/10 10:13:59;;;;;;;20.23;11.98;;;;;;;;;;5009395;28;20100;-68
2022/03/10 10:16:24;;;;;;;19.65;13.15;;;;;;;;;;5009464;28;20722;-68
2022/03/10 10:18:56;;;;;;;20.30;11.80;;;;;;;;;;5010177;28;20473;-69
2022/03/10 10:21:23;;;;;;;24.73;11.98;;;;;;;;;;5013297;28;20084;-69
2022/03/10 10:23:50;;;;;;;18.17;11.65;;;;;;;;;;5013531;28;20025;-68
2022/03/10 10:26:16;;;;;;;20.33;12.65;;;;;;;;;;5011639;28;20440;-68
2022/03/10 10:28:43;;;;;;;21.60;13.20;;;;;;;;;;5013055;28;20018;-67
2022/03/10 10:31:11;;;;;;;18.13;12.75;;;;;;;;;;5012498;28;20053;-66
2022/03/10 10:33:41;;;;;;;21.48;13.55;;;;;;;;;;5013028;28;20026;-66
2022/03/10 10:36:30;;;;;;;20.58;13.00;;;;;;;;;;5012753;28;20046;-66
2022/03/10 10:39:13;;;;;;;22.40;13.52;;;;;;;;;;5013188;28;20034;-66
2022/03/10 10:41:42;;;;;;;21.10;13.30;;;;;;;;;;5012349;28;20030;-66
2022/03/10 10:44:12;;;;;;;22.48;13.13;;;;;;;;;;5011507;28;20033;-66
2022/03/10 10:46:41;;;;;;;18.35;12.63;;;;;;;;;;5010423;28;20445;-67
2022/03/10 10:49:19;;;;;;;22.98;13.07;;;;;;;;;;5012184;28;20106;-67
2022/03/10 10:51:49;;;;;;;18.50;12.52;;;;;;;;;;5012403;28;20398;-67
2022/03/10 10:54:23;;;;;;;22.23;12.25;;;;;;;;;;5012554;28;20502;-67
2022/03/10 10:56:51;;;;;;;20.02;12.80;;;;;;;;;;5012407;28;20049;-67
2022/03/10 10:59:34;;;;;;;21.45;12.55;;;;;;;;;;5012648;28;20022;-66
2022/03/10 11:02:09;;;;;;;20.33;12.88;;;;;;;;;;5012218;28;20053;-66
2022/03/10 11:04:36;;;;;;;21.17;12.60;;;;;;;;;;5011819;28;20075;-65
2022/03/10 11:07:02;;;;;;;21.38;12.60;;;;;;;;;;5011411;28;20034;-66
2022/03/10 11:09:30;;;;;;;18.63;11.98;;;;;;;;;;5012768;28;20377;-66
2022/03/10 11:11:56;;;;;;;23.15;12.90;;;;;;;;;;5012313;28;20080;-66
2022/03/10 11:14:21;;;;;;;21.35;12.48;;;;;;;;;;5012599;28;20026;-66
2022/03/10 11:16:48;;;;;;;23.27;12.38;;;;;;;;;;5012484;28;20030;-66
2022/03/10 11:19:15;;;;;;;22.73;12.75;;;;;;;;;;5012068;28;20080;-66
2022/03/10 11:21:56;;;;;;;22.27;13.63;;;;;;;;;;5011661;28;20025;-66
2022/03/10 11:24:44;;;;;;;21.75;13.75;;;;;;;;;;5012366;28;20026;-67
2022/03/10 11:27:14;;;;;;;24.05;13.45;;;;;;;;;;5011946;28;20029;-67
2022/03/10 11:29:41;;;;;;;;;;;;;;;;;;5012499;28;20113;-66
2022/03/10 11:32:09;;;;;;;20.90;13.18;;;;;;;;;;5010537;28;20127;-67
2022/03/10 11:34:49;;;;;;;21.27;12.85;;;;;;;;;;5011594;28;20046;-66
2022/03/10 11:37:42;;;;;;;23.53;13.40;;;;;;;;;;5011781;28;20112;-66
2022/03/10 11:40:11;;;;;;;22.33;13.32;;;;;;;;;;5011597;28;20064;-68
2022/03/10 11:42:37;;;;;;;22.25;12.75;;;;;;;;;;5011898;28;20022;-66
2022/03/10 11:45:15;;;;;;;25.05;13.43;;;;;;;;;;5011588;28;20040;-67
2022/03/10 11:47:41;;;;;;;18.75;12.63;;;;;;;;;;5011890;28;20033;-66
2022/03/10 11:50:22;;;;;;;19.60;12.50;;;;;;;;;;5011514;28;20502;-67
2022/03/10 11:52:57;;;;;;;;;;;;;;;;;;5012113;28;20034;-66
2022/03/10 11:55:37;;;;;;;19.38;12.18;;;;;;;;;;5011418;28;19932;-67
2022/03/10 11:58:06;;;;;;;21.02;12.52;;;;;;;;;;5012146;28;20025;-66
2022/03/10 12:00:40;;;;;;;22.02;12.48;;;;;;;;;;5011182;28;20186;-66
2022/03/10 12:03:07;;;;;;;20.80;12.95;;;;;;;;;;5011869;28;20044;-66
2022/03/10 12:05:55;;;;;;;21.33;12.18;;;;;;;;;;5011329;28;20037;-66
2022/03/10 12:08:29;;;;;;;21.55;11.60;;;;;;;;;;5018068;28;20273;-66
2022/03/10 12:10:55;;;;;;;24.33;13.15;;;;;;;;;;5022133;28;20079;-67
2022/03/10 12:13:40;;;;;;;17.00;11.48;;;;;;;;;;5020284;28;20034;-67
2022/03/10 12:16:08;;;;;;;17.98;11.68;;;;;;;;;;5009344;28;20037;-68
2022/03/10 12:18:42;;;;;;;17.48;11.45;;;;;;;;;;5009856;28;20394;-66
2022/03/10 12:21:23;;;;;;;20.40;11.32;;;;;;;;;;5010789;28;20036;-65
2022/03/10 12:23:56;;;;;;;;;;;;;;;;;;5011464;28;20034;-65
2022/03/10 12:26:33;;;;;;;18.35;11.60;;;;;;;;;;5010578;28;19909;-66
2022/03/10 12:29:07;;;;;;;19.83;12.23;;;;;;;;;;5010893;28;20022;-67
2022/03/10 12:31:35;;;;;;;19.25;11.70;;;;;;;;;;5010341;28;20030;-67
2022/03/10 12:34:13;;;;;;;18.23;11.18;;;;;;;;;;5010587;28;20034;-67
2022/03/10 12:36:39;;;;;;;18.75;11.45;;;;;;;;;;5010968;28;20026;-66
2022/03/10 12:39:09;;;;;;;17.52;11.30;;;;;;;;;;5010709;28;20026;-67
2022/03/10 12:41:38;;;;;;;20.17;11.07;;;;;;;;;;5010497;28;20113;-67
2022/03/10 12:44:06;;;;;;;17.67;10.57;;;;;;;;;;5010046;28;20056;-66
2022/03/10 12:46:34;;;;;;;18.95;10.63;;;;;;;;;;5010618;28;20026;-66
2022/03/10 12:48:59;;;;;;;16.58;10.90;;;;;;;;;;5021753;28;20042;-66
2022/03/10 12:51:28;;;;;;;17.65;11.05;;;;;;;;;;5014763;28;20104;-66
2022/03/10 12:53:54;;;;;;;16.48;10.35;;;;;;;;;;5009259;28;20030;-68
2022/03/10 12:56:20;;;;;;;16.20;9.50;;;;;;;;;;5010295;28;20030;-66
2022/03/10 12:58:48;;;;;;;20.23;11.60;;;;;;;;;;5008914;28;20049;-67
2022/03/10 13:01:14;;;;;;;14.75;10.00;;;;;;;;;;5009573;28;20030;-65
2022/03/10 13:03:49;;;;;;;18.35;11.38;;;;;;;;;;5010214;28;20033;-67
2022/03/10 13:06:26;;;;;;;15.57;9.77;;;;;;;;;;5010175;28;20036;-67
2022/03/10 13:08:59;;;;;;;16.52;11.32;;;;;;;;;;5010524;28;20602;-67
2022/03/10 13:11:31;;;;;;;17.20;10.98;;;;;;;;;;5009226;28;20038;-68
2022/03/10 13:14:11;;;;;;;23.05;15.15;;;;;;;;;;5009739;28;20120;-68
2022/03/10 13:16:39;;;;;;;19.88;11.95;;;;;;;;;;5009357;28;20030;-66
2022/03/10 13:19:07;;;;;;;19.50;13.25;;;;;;;;;;5010177;28;20083;-68
2022/03/10 13:21:33;;;;;;;18.45;11.88;;;;;;;;;;5009146;28;20417;-68
2022/03/10 13:23:58;;;;;;;18.05;10.60;;;;;;;;;;5004322;28;20450;-68
2022/03/10 13:26:27;;;;;;;15.68;9.90;;;;;;;;;;5008713;28;20593;-66
2022/03/10 13:28:54;;;;;;;14.63;9.10;;;;;;;;;;5009658;28;20056;-65
2022/03/10 13:31:27;;;;;;;11.88;7.88;;;;;;;;;;5009173;28;20022;-73
2022/03/10 13:33:54;;;;;;;13.55;8.43;;;;;;;;;;5009087;28;20219;-65
2022/03/10 13:36:20;;;;;;;13.55;8.02;;;;;;;;;;5008132;28;20022;-67
2022/03/10 13:38:45;;;;;;;29.20;15.98;;;;;;;;;;5008063;28;20402;-70
2022/03/10 13:41:11;;;;;;;25.23;15.10;;;;;;;;;;5007518;28;20879;-67
2022/03/10 13:43:38;;;;;;;19.92;12.00;;;;;;;;;;5009819;28;20069;-67
2022/03/10 13:46:09;;;;;;;17.95;10.95;;;;;;;;;;5009689;28;20030;-68
2022/03/10 13:48:52;;;;;;;12.40;8.18;;;;;;;;;;5008966;28;20038;-67
2022/03/10 13:51:20;;;;;;;12.80;7.43;;;;;;;;;;5009557;28;20037;-67
2022/03/10 13:54:02;;;;;;;13.25;6.32;;;;;;;;;;5009679;28;20085;-68
2022/03/10 13:56:33;;;;;;;12.18;6.60;;;;;;;;;;5013652;28;20169;-66
2022/03/10 13:59:02;;;;;;;8.50;5.95;;;;;;;;;;5017432;28;20037;-66
2022/03/10 14:01:27;;;;;;;9.43;5.85;;;;;;;;;;5021741;28;20041;-67
2022/03/10 14:03:54;;;;;;;9.95;5.82;;;;;;;;;;5013174;28;20025;-66
2022/03/10 14:06:20;;;;;;;14.13;6.38;;;;;;;;;;5013308;28;20200;-67
2022/03/10 14:08:52;;;;;;;13.32;8.20;;;;;;;;;;5012928;28;20030;-69
2022/03/10 14:11:27;;;;;;;98.50;44.45;;;;;;;;;;5013276;28;20026;-68
2022/03/10 14:14:02;;;;;;;152.20;64.70;;;;;;;;;;5008358;28;20044;-68
2022/03/10 14:16:29;;;;;;;15.27;7.72;;;;;;;;;;5014142;28;20065;-68
2022/03/10 14:18:56;;;;;;;11.40;6.60;;;;;;;;;;5011703;28;20497;-68
2022/03/10 14:21:21;;;;;;;11.23;6.57;;;;;;;;;;5011948;28;20026;-66
2022/03/10 14:23:59;;;;;;;8.88;6.53;;;;;;;;;;5011583;28;20113;-66
2022/03/10 14:26:25;;;;;;;8.82;5.63;;;;;;;;;;5011883;28;20386;-65